createdAt,value
2024-01-16T00:00:32.859Z,77
2024-01-16T00:20:36.147Z,76
2024-01-16T00:40:34.294Z,80
2024-01-16T01:00:35.005Z,80
2024-01-16T01:20:32.261Z,79
2024-01-16T01:40:34.349Z,78
2024-01-16T02:00:32.130Z,79
2024-01-16T02:20:32.258Z,81
2024-01-16T02:40:33.410Z,81
2024-01-16T03:00:31.377Z,81
2024-01-16T03:20:33.654Z,82
2024-01-16T03:40:32.659Z,82
2024-01-16T04:00:34.498Z,83
2024-01-16T04:20:31.766Z,85
2024-01-16T04:40:31.630Z,85
2024-01-16T05:00:32.064Z,85
2024-01-16T05:20:32.956Z,86
2024-01-16T05:40:31.731Z,85
2024-01-16T06:00:32.597Z,85
2024-01-16T06:20:33.615Z,86
2024-01-16T06:40:33.730Z,86
2024-01-16T07:00:34.442Z,86
2024-01-16T07:20:52.861Z,86
2024-01-16T07:40:51.453Z,86
2024-01-16T08:00:49.765Z,87
2024-01-16T08:20:52.842Z,87
2024-01-16T08:40:53.906Z,87
2024-01-16T09:00:46.772Z,87
2024-01-16T09:20:50.725Z,88
2024-01-16T09:40:50.332Z,88
2024-01-16T10:00:53.138Z,87
2024-01-16T10:20:50.911Z,86
2024-01-16T10:40:53.101Z,85
2024-01-16T11:00:52.191Z,84
2024-01-16T11:25:55.257Z,84
2024-01-16T11:45:12.890Z,82
2024-01-16T12:05:10.883Z,81
2024-01-16T12:25:13.845Z,81
2024-01-16T12:45:12.108Z,81
2024-01-16T13:05:10.721Z,80
2024-01-16T13:25:19.180Z,82
2024-01-16T13:45:12.061Z,80
2024-01-16T14:05:10.083Z,80
2024-01-16T14:25:13.686Z,79
2024-01-16T14:45:11.339Z,80
2024-01-16T15:05:19.258Z,79
2024-01-16T15:25:12.132Z,80
2024-01-16T15:45:10.550Z,80
2024-01-16T16:05:14.999Z,79
2024-01-16T16:24:54.671Z,81
2024-01-16T16:44:52.763Z,83
2024-01-16T17:04:56.045Z,82
2024-01-16T17:24:53.885Z,83
2024-01-16T17:44:52.126Z,82
2024-01-16T18:04:54.755Z,82
2024-01-16T18:24:52.865Z,84
2024-01-16T18:40:31.795Z,84
2024-01-16T19:00:33.452Z,86
2024-01-16T19:20:32.853Z,85
2024-01-16T19:40:32.449Z,87
2024-01-16T20:00:35.456Z,88
2024-01-16T20:20:34.959Z,88
2024-01-16T20:40:34.561Z,89
2024-01-16T21:00:32.618Z,90
2024-01-16T21:20:32.120Z,90
2024-01-16T22:00:34.171Z,90
2024-01-16T22:20:31.602Z,90
2024-01-16T22:40:31.937Z,90
2024-01-16T23:00:40.795Z,91
2024-01-16T23:20:32.550Z,90
2024-01-16T23:40:31.905Z,90
